Saimaagracht — PHCQ — position and weather

sailwx.info

Track history (hours):
 
Tides and Currents Weather Stations Pressure Air Temp Water Temp Dewpoint Dewpoint Depression Visibility Wind Speed Wind Dir Waves Ship Positions

Saimaagracht

Last reported at 2020-Jun-06 21:27 UTC. Time now 2020-Jun-07 02:54 UTC.
Position N 57°47' E 009°46'.

Length 173 m; beam 26 m.

Type: Cargo ship. MMSI: 246293000.

Date/timePositionNaut miles runAvg speedWind from/ knotsBaromVisibWave heightAir tempDewpointWater temp
2020-Jun-06 21:27N 57°47' E 009°46'716.0
2020-Jun-06 21:00N 57°46' E 009°33'1616.2
2020-Jun-06 20:00N 57°45' E 009°03'5315.2
2020-Jun-06 16:30N 57°42' E 007°23'3714.7
2020-Jun-06 14:00N 57°48' E 006°15'714.8
2020-Jun-06 13:30N 57°50' E 006°02'815.3
2020-Jun-06 13:00N 57°51' E 005°47'815.1
2020-Jun-06 12:30N 57°53' E 005°34'2214.7
2020-Jun-06 11:00N 57°58' E 004°53'714.3
2020-Jun-06 10:30N 57°59' E 004°40'22514.0
2020-Jun-05 18:26N 58°42' W 002°21'613.9
2020-Jun-05 18:00N 58°42' W 002°33'815.5
2020-Jun-05 17:30N 58°42' W 002°48'2214.7
2020-Jun-05 16:00N 58°43' W 003°30'2613.2
2020-Jun-05 14:00N 58°43' W 004°21'3312.7
2020-Jun-05 11:26N 58°41' W 005°24'6112.4
2020-Jun-05 06:30N 58°32' W 007°20'  
Track history (hours):
 
Tides and Currents Weather Stations Pressure Air Temp Water Temp Dewpoint Dewpoint Depression Visibility Wind Speed Wind Dir Waves Ship Positions

Saimaagracht

Last reported at 2020-Jun-06 21:27 UTC. Time now 2020-Jun-07 02:55 UTC.
Position N 57°47' E 009°46'.

Length 173 m; beam 26 m.

Type: Cargo ship. MMSI: 246293000.

Date/timePositionNaut miles runAvg speedWind from/ knotsBaromVisibWave heightAir tempDewpointWater temp
2020-Jun-06 21:27N 57°47' E 009°46'716.0
2020-Jun-06 21:00N 57°46' E 009°33'1616.2
2020-Jun-06 20:00N 57°45' E 009°03'5315.2
2020-Jun-06 16:30N 57°42' E 007°23'3714.7
2020-Jun-06 14:00N 57°48' E 006°15'714.8
2020-Jun-06 13:30N 57°50' E 006°02'815.3
2020-Jun-06 13:00N 57°51' E 005°47'815.1
2020-Jun-06 12:30N 57°53' E 005°34'2214.7
2020-Jun-06 11:00N 57°58' E 004°53'714.3
2020-Jun-06 10:30N 57°59' E 004°40'22514.0
2020-Jun-05 18:26N 58°42' W 002°21'613.9
2020-Jun-05 18:00N 58°42' W 002°33'815.5
2020-Jun-05 17:30N 58°42' W 002°48'2214.7
2020-Jun-05 16:00N 58°43' W 003°30'2613.2
2020-Jun-05 14:00N 58°43' W 004°21'3312.7
2020-Jun-05 11:26N 58°41' W 005°24'6112.4
2020-Jun-05 06:30N 58°32' W 007°20'  

Dump ship's entire track history